createdAt,value
2022-09-07T00:01:04.343Z,100995.53
2022-09-07T00:03:31.350Z,100988.66
2022-09-07T00:05:58.346Z,100991.84
2022-09-07T00:08:27.289Z,100982.38
2022-09-07T00:11:01.372Z,100980.94
2022-09-07T00:13:32.772Z,100988.13
2022-09-07T00:16:09.310Z,100993.31
2022-09-07T00:18:36.321Z,100989.69
2022-09-07T00:21:09.798Z,100998.44
2022-09-07T00:23:39.414Z,101001.31
2022-09-07T00:26:13.719Z,100997.88
2022-09-07T00:28:40.772Z,100989.13
2022-09-07T00:31:15.705Z,100988.41
2022-09-07T00:33:43.889Z,100983.28
2022-09-07T00:36:11.607Z,100972.63
2022-09-07T00:38:38.903Z,100974.66
2022-09-07T00:41:06.070Z,100963.88
2022-09-07T00:43:58.362Z,100966.03
2022-09-07T00:46:34.462Z,100962.59
2022-09-07T00:49:18.169Z,100949.94
2022-09-07T00:51:55.137Z,100954.00
2022-09-07T00:54:30.989Z,100943.34
2022-09-07T00:56:58.116Z,100938.22
2022-09-07T00:59:30.395Z,100929.31
2022-09-07T01:01:57.735Z,100934.34
2022-09-07T01:04:25.390Z,100936.50
2022-09-07T01:06:55.778Z,100926.72
2022-09-07T01:09:25.617Z,100927.06
2022-09-07T01:11:57.418Z,100923.63
2022-09-07T01:14:30.968Z,100933.94
2022-09-07T01:17:21.711Z,100922.75
2022-09-07T01:20:33.014Z,100925.06
2022-09-07T01:23:35.918Z,100920.16
2022-09-07T01:27:02.332Z,100918.72
2022-09-07T01:29:35.614Z,100919.28
2022-09-07T01:33:17.504Z,100928.78
2022-09-07T01:35:55.621Z,100934.66
2022-09-07T01:39:03.025Z,100940.28
2022-09-07T01:41:36.437Z,100949.44
2022-09-07T01:44:17.954Z,100946.00
2022-09-07T01:47:15.669Z,100946.00
2022-09-07T01:49:52.227Z,100940.81
2022-09-07T01:52:56.214Z,100935.69
2022-09-07T01:56:00.950Z,100926.75
2022-09-07T01:58:49.666Z,100927.91
2022-09-07T02:01:24.355Z,100922.72
2022-09-07T02:04:07.998Z,100926.47
2022-09-07T02:07:16.302Z,100926.47
2022-09-07T02:10:26.259Z,100923.91
2022-09-07T02:13:19.627Z,100922.47
2022-09-07T02:16:01.643Z,100922.75
2022-09-07T02:18:38.512Z,100921.75
2022-09-07T02:21:08.644Z,100922.75
2022-09-07T02:23:47.649Z,100941.41
2022-09-07T02:26:21.696Z,100940.81
2022-09-07T02:28:48.985Z,100932.19
2022-09-07T02:31:16.497Z,100929.19
2022-09-07T02:33:43.705Z,100928.22
2022-09-07T02:36:16.194Z,100924.03
2022-09-07T02:38:43.058Z,100922.72
2022-09-07T02:41:41.330Z,100919.75
2022-09-07T02:44:15.617Z,100907.69
2022-09-07T02:46:58.959Z,100913.28
2022-09-07T02:49:53.107Z,100917.16
2022-09-07T02:53:13.201Z,100921.84
2022-09-07T02:56:06.338Z,100922.16
2022-09-07T02:58:45.026Z,100913.28
2022-09-07T03:01:42.809Z,100914.69
2022-09-07T03:04:46.892Z,100903.22
2022-09-07T03:07:22.429Z,100908.66
2022-09-07T03:09:53.409Z,100908.38
2022-09-07T03:12:21.135Z,100904.50
2022-09-07T03:14:48.079Z,100906.38
2022-09-07T03:17:15.505Z,100911.56
2022-09-07T03:19:42.389Z,100905.53
2022-09-07T03:22:09.248Z,100901.25
2022-09-07T03:24:37.042Z,100907.09
2022-09-07T03:27:04.100Z,100904.09
2022-09-07T03:29:30.955Z,100905.53
2022-09-07T03:31:57.899Z,100904.94
2022-09-07T03:34:24.833Z,100900.81
2022-09-07T03:36:51.645Z,100912.56
2022-09-07T03:39:20.959Z,100915.72
2022-09-07T03:41:48.021Z,100911.84
2022-09-07T03:44:14.925Z,100909.56
2022-09-07T03:46:41.863Z,100904.66
2022-09-07T03:49:08.745Z,100898.06
2022-09-07T03:51:35.657Z,100902.06
2022-09-07T03:54:02.483Z,100897.78
2022-09-07T03:56:29.461Z,100910.53
2022-09-07T03:58:56.349Z,100909.81
2022-09-07T04:01:26.513Z,100908.09
2022-09-07T04:04:01.752Z,100912.09
2022-09-07T04:06:30.447Z,100915.81
2022-09-07T04:09:01.050Z,100914.25
2022-09-07T04:11:27.969Z,100921.53
2022-09-07T04:13:54.761Z,100910.38
2022-09-07T04:16:25.787Z,100897.78
2022-09-07T04:18:57.709Z,100894.59
2022-09-07T04:21:28.205Z,100892.47
2022-09-07T04:23:55.180Z,100882.28
2022-09-07T04:26:27.343Z,100876.25
2022-09-07T04:28:54.618Z,100871.06
2022-09-07T04:31:23.078Z,100868.47
2022-09-07T04:33:52.263Z,100868.34
2022-09-07T04:36:20.738Z,100869.94
2022-09-07T04:38:59.666Z,100871.38
2022-09-07T04:41:29.819Z,100876.38
2022-09-07T04:44:02.430Z,100881.41
2022-09-07T04:46:36.563Z,100890.31
2022-09-07T04:49:10.667Z,100891.47
2022-09-07T04:51:39.977Z,100885.72
2022-09-07T04:54:07.349Z,100882.69
2022-09-07T04:56:34.623Z,100886.56
2022-09-07T04:59:03.042Z,100895.88
2022-09-07T05:01:30.550Z,100883.41
2022-09-07T05:04:00.909Z,100892.41
2022-09-07T05:06:28.798Z,100897.59
2022-09-07T05:08:56.592Z,100905.38
2022-09-07T05:11:29.101Z,100906.66
2022-09-07T05:13:58.680Z,100899.19
2022-09-07T05:16:27.026Z,100902.06
2022-09-07T05:18:57.696Z,100903.22
2022-09-07T05:21:28.272Z,100896.63
2022-09-07T05:23:57.814Z,100890.91
2022-09-07T05:26:28.745Z,100899.19
2022-09-07T05:31:42.789Z,100896.63
2022-09-07T05:36:57.037Z,100896.34
2022-09-07T05:39:24.518Z,100902.25
2022-09-07T05:41:51.539Z,100905.81
2022-09-07T05:47:05.710Z,100905.22
2022-09-07T05:49:32.570Z,100904.94
2022-09-07T05:51:59.355Z,100897.47
2022-09-07T05:54:26.229Z,100904.34
2022-09-07T05:56:53.234Z,100910.38
2022-09-07T05:59:20.093Z,100907.50
2022-09-07T06:01:46.966Z,100900.03
2022-09-07T06:04:13.800Z,100903.53
2022-09-07T06:06:40.722Z,100902.38
2022-09-07T06:09:09.171Z,100915.00
2022-09-07T06:11:36.700Z,100916.88
2022-09-07T06:14:03.979Z,100906.97
2022-09-07T06:16:35.022Z,100906.97
2022-09-07T06:19:07.235Z,100904.25
2022-09-07T06:21:38.547Z,100907.84
2022-09-07T06:24:06.529Z,100918.59
2022-09-07T06:26:33.625Z,100925.91
2022-09-07T06:29:02.250Z,100924.78
2022-09-07T06:31:29.369Z,100926.47
2022-09-07T06:33:57.349Z,100930.94
2022-09-07T06:36:30.172Z,100928.22
2022-09-07T06:38:59.761Z,100930.78
2022-09-07T06:44:20.316Z,100927.34
2022-09-07T06:49:29.411Z,100944.84
2022-09-07T06:51:56.429Z,100930.91
2022-09-07T06:57:10.127Z,100935.59
2022-09-07T06:59:38.237Z,100934.69
2022-09-07T07:02:06.921Z,100932.41
2022-09-07T07:04:39.483Z,100934.50
2022-09-07T07:07:14.036Z,100940.97
2022-09-07T07:09:41.901Z,100950.28
2022-09-07T07:12:11.007Z,100953.84
2022-09-07T07:14:41.308Z,100949.78
2022-09-07T07:17:11.111Z,100949.22
2022-09-07T07:19:38.009Z,100954.41
2022-09-07T07:22:18.768Z,100945.28
2022-09-07T07:24:51.674Z,100945.72
2022-09-07T07:27:18.559Z,100941.72
2022-09-07T07:29:45.801Z,100949.38
2022-09-07T07:32:12.695Z,100949.13
2022-09-07T07:35:16.849Z,100946.91
2022-09-07T07:37:43.773Z,100955.47
2022-09-07T07:42:45.136Z,100958.34
2022-09-07T07:47:59.897Z,100975.06
2022-09-07T07:50:34.386Z,100974.78
2022-09-07T07:55:49.049Z,100976.63
2022-09-07T07:58:16.323Z,100978.81
2022-09-07T08:00:54.151Z,100984.81
2022-09-07T08:03:23.703Z,100973.75
2022-09-07T08:05:50.708Z,100977.16
2022-09-07T08:08:18.415Z,100976.31
2022-09-07T08:10:47.703Z,100982.16
2022-09-07T08:13:16.521Z,100976.72
2022-09-07T08:15:46.586Z,100986.81
2022-09-07T08:18:16.259Z,100986.06
2022-09-07T08:20:44.132Z,100990.31
2022-09-07T08:23:11.682Z,100992.53
2022-09-07T08:25:38.813Z,100994.88
2022-09-07T08:28:06.241Z,100995.84
2022-09-07T08:30:33.170Z,100998.28
2022-09-07T08:32:59.980Z,100998.31
2022-09-07T08:35:26.873Z,100994.25
2022-09-07T08:37:54.101Z,100996.66
2022-09-07T08:40:21.053Z,100996.03
2022-09-07T08:43:02.886Z,100999.66
2022-09-07T08:45:38.145Z,101007.25
2022-09-07T08:48:05.490Z,101007.44
2022-09-07T08:50:43.857Z,101009.19
2022-09-07T08:53:19.742Z,101005.59
2022-09-07T08:56:04.262Z,101014.50
2022-09-07T08:58:55.669Z,101008.34
2022-09-07T09:01:38.856Z,101006.81
2022-09-07T09:04:27.486Z,101006.69
2022-09-07T09:07:09.133Z,101005.00
2022-09-07T09:10:20.867Z,101005.06
2022-09-07T09:13:26.528Z,101008.31
2022-09-07T09:16:04.620Z,101011.25
2022-09-07T09:18:52.524Z,101008.88
2022-09-07T09:21:24.832Z,101008.72
2022-09-07T09:24:00.268Z,101013.72
2022-09-07T09:26:31.340Z,101011.91
2022-09-07T09:28:58.123Z,101018.25
2022-09-07T09:31:35.953Z,101019.66
2022-09-07T09:34:05.546Z,101016.69
2022-09-07T09:36:43.869Z,101016.41
2022-09-07T09:39:35.590Z,101014.19
2022-09-07T09:42:11.535Z,101016.22
2022-09-07T09:44:39.801Z,101018.66
2022-09-07T09:47:33.640Z,101011.75
2022-09-07T09:53:24.407Z,101007.28
2022-09-07T09:55:55.321Z,101012.13
2022-09-07T10:01:36.798Z,101001.06
2022-09-07T10:04:25.373Z,101003.38
2022-09-07T10:07:11.157Z,100997.38
2022-09-07T10:09:43.699Z,100999.41
2022-09-07T10:12:34.450Z,100998.38
2022-09-07T10:15:39.946Z,100996.78
2022-09-07T10:18:27.543Z,100995.06
2022-09-07T10:21:14.063Z,100986.81
2022-09-07T10:23:41.419Z,100984.75
2022-09-07T10:26:29.599Z,100978.84
2022-09-07T10:29:17.287Z,100991.50
2022-09-07T10:32:07.469Z,100992.81
2022-09-07T10:34:49.021Z,100992.38
2022-09-07T10:37:54.115Z,100982.66
2022-09-07T10:40:37.620Z,100991.88
2022-09-07T10:43:29.485Z,100979.72
2022-09-07T10:46:56.086Z,100979.28
2022-09-07T10:49:29.553Z,100982.38
2022-09-07T10:52:26.761Z,100979.56
2022-09-07T10:55:10.411Z,100970.38
2022-09-07T10:57:49.407Z,100972.41
2022-09-07T11:00:22.480Z,100971.03
2022-09-07T11:03:26.945Z,100971.63
2022-09-07T11:06:31.446Z,100970.81
2022-09-07T11:09:29.088Z,100977.09
2022-09-07T11:12:31.762Z,100973.38
2022-09-07T11:15:25.710Z,100976.44
2022-09-07T11:18:05.700Z,100974.81
2022-09-07T11:20:42.442Z,100977.53
2022-09-07T11:23:41.413Z,100966.03
2022-09-07T11:26:25.392Z,100959.97
2022-09-07T11:31:58.694Z,100959.16
2022-09-07T11:34:33.772Z,100954.47
2022-09-07T11:37:16.997Z,100964.31
2022-09-07T11:39:57.922Z,100965.06
2022-09-07T11:42:52.342Z,100963.56
2022-09-07T11:45:35.659Z,100958.28
2022-09-07T11:48:30.293Z,100961.13
2022-09-07T11:51:13.212Z,100954.69
2022-09-07T11:53:49.180Z,100951.41
2022-09-07T11:56:29.566Z,100957.75
2022-09-07T11:59:23.406Z,100963.47
2022-09-07T12:02:58.171Z,100957.63
2022-09-07T12:05:57.764Z,100956.69
2022-09-07T12:09:07.510Z,100946.81
2022-09-07T12:12:08.145Z,100951.56
2022-09-07T12:14:46.882Z,100947.00
2022-09-07T12:18:15.034Z,100939.78
2022-09-07T12:20:48.083Z,100938.84
2022-09-07T12:23:29.206Z,100933.34
2022-09-07T12:26:34.186Z,100935.19
2022-09-07T12:29:00.882Z,100933.44
2022-09-07T12:31:59.715Z,100929.00
2022-09-07T12:34:34.249Z,100922.97
2022-09-07T12:37:23.480Z,100921.94
2022-09-07T12:39:50.319Z,100916.28
2022-09-07T12:42:34.348Z,100912.75
2022-09-07T12:45:42.297Z,100918.88
2022-09-07T12:48:15.040Z,100908.25
2022-09-07T12:51:04.546Z,100915.47
2022-09-07T12:54:15.310Z,100898.03
2022-09-07T12:57:29.038Z,100911.41
2022-09-07T12:59:51.169Z,100904.06
2022-09-07T13:02:54.567Z,100893.59
2022-09-07T13:06:17.257Z,100901.00
2022-09-07T13:09:05.724Z,100891.94
2022-09-07T13:11:38.243Z,100890.22
2022-09-07T13:14:14.990Z,100885.38
2022-09-07T13:19:51.412Z,100887.56
2022-09-07T13:22:38.368Z,100886.94
2022-09-07T13:25:28.048Z,100879.09
2022-09-07T13:28:14.053Z,100875.69
2022-09-07T13:31:26.155Z,100877.22
2022-09-07T13:33:54.190Z,100879.56
2022-09-07T13:36:36.425Z,100872.50
2022-09-07T13:39:12.668Z,100874.88
2022-09-07T13:41:51.220Z,100873.16
2022-09-07T13:44:26.112Z,100868.84
2022-09-07T13:47:02.729Z,100862.06
2022-09-07T13:50:19.931Z,100856.56
2022-09-07T13:53:08.004Z,100868.50
2022-09-07T13:56:05.323Z,100849.31
2022-09-07T13:58:43.522Z,100847.56
2022-09-07T14:01:22.859Z,100849.72
2022-09-07T14:04:07.317Z,100842.03
2022-09-07T14:06:37.660Z,100848.59
2022-09-07T14:09:17.016Z,100850.13
2022-09-07T14:11:50.937Z,100853.97
2022-09-07T14:14:20.588Z,100855.88
2022-09-07T14:17:13.992Z,100847.06
2022-09-07T14:19:51.901Z,100850.09
2022-09-07T14:22:22.833Z,100846.31
2022-09-07T14:25:02.032Z,100836.44
2022-09-07T14:27:41.404Z,100843.28
2022-09-07T14:30:28.156Z,100847.22
2022-09-07T14:33:13.425Z,100848.19
2022-09-07T14:35:41.668Z,100857.41
2022-09-07T14:41:15.962Z,100846.47
2022-09-07T14:44:00.011Z,100835.22
2022-09-07T14:46:30.761Z,100835.03
2022-09-07T14:49:07.621Z,100841.84
2022-09-07T14:51:36.796Z,100830.13
2022-09-07T14:54:07.634Z,100829.25
2022-09-07T14:56:39.330Z,100832.22
2022-09-07T14:59:36.785Z,100827.94
2022-09-07T15:02:19.072Z,100827.53
2022-09-07T15:04:49.355Z,100826.06
2022-09-07T15:07:48.057Z,100830.94
2022-09-07T15:10:35.540Z,100826.63
2022-09-07T15:13:06.155Z,100828.72
2022-09-07T15:15:39.561Z,100824.81
2022-09-07T15:18:54.832Z,100826.31
2022-09-07T15:21:27.978Z,100826.47
2022-09-07T15:23:58.515Z,100826.00
2022-09-07T15:29:20.048Z,100822.94
2022-09-07T15:32:01.141Z,100819.53
2022-09-07T15:34:31.341Z,100811.03
2022-09-07T15:37:00.254Z,100817.69
2022-09-07T15:39:29.779Z,100809.91
2022-09-07T15:42:00.420Z,100804.03
2022-09-07T15:44:44.924Z,100815.13
2022-09-07T15:49:58.501Z,100801.94
2022-09-07T15:52:25.328Z,100810.88
2022-09-07T15:54:52.101Z,100805.34
2022-09-07T16:00:07.348Z,100802.38
2022-09-07T16:05:30.400Z,100796.75
2022-09-07T16:10:45.169Z,100794.97
2022-09-07T16:13:16.690Z,100796.22
2022-09-07T16:15:46.364Z,100794.50
2022-09-07T16:18:17.401Z,100798.94
2022-09-07T16:20:45.910Z,100792.28
2022-09-07T16:23:16.949Z,100798.56
2022-09-07T16:25:59.147Z,100787.63
2022-09-07T16:28:27.510Z,100789.25
2022-09-07T16:30:56.263Z,100786.66
2022-09-07T16:33:32.779Z,100790.63
2022-09-07T16:36:23.546Z,100788.00
2022-09-07T16:38:57.763Z,100787.09
2022-09-07T16:41:31.711Z,100784.88
2022-09-07T16:43:59.391Z,100777.78
2022-09-07T16:46:35.232Z,100787.25
2022-09-07T16:49:03.097Z,100796.53
2022-09-07T16:51:29.879Z,100786.50
2022-09-07T16:53:58.921Z,100786.22
2022-09-07T16:56:29.665Z,100789.78
2022-09-07T16:59:00.678Z,100786.09
2022-09-07T17:01:35.060Z,100788.97
2022-09-07T17:04:05.605Z,100787.19
2022-09-07T17:06:35.023Z,100793.47
2022-09-07T17:09:01.872Z,100787.47
2022-09-07T17:11:34.918Z,100787.00
2022-09-07T17:14:02.618Z,100787.41
2022-09-07T17:16:33.531Z,100792.44
2022-09-07T17:21:51.765Z,100780.09
2022-09-07T17:24:19.799Z,100776.28
2022-09-07T17:26:46.820Z,100774.59
2022-09-07T17:29:13.604Z,100762.63
2022-09-07T17:34:32.014Z,100757.34
2022-09-07T17:37:00.629Z,100752.97
2022-09-07T17:39:27.921Z,100750.31
2022-09-07T17:41:55.034Z,100750.25
2022-09-07T17:44:30.800Z,100756.50
2022-09-07T17:47:00.164Z,100757.22
2022-09-07T17:49:29.327Z,100757.13
2022-09-07T17:51:58.468Z,100752.03
2022-09-07T17:54:25.840Z,100752.41
2022-09-07T17:56:53.237Z,100754.47
2022-09-07T18:02:06.838Z,100745.09
2022-09-07T18:04:35.734Z,100743.38
2022-09-07T18:07:03.344Z,100748.03
2022-09-07T18:09:30.316Z,100750.47
2022-09-07T18:11:57.120Z,100755.97
2022-09-07T18:14:23.951Z,100755.31
2022-09-07T18:16:50.920Z,100754.66
2022-09-07T18:19:18.948Z,100760.53
2022-09-07T18:21:47.830Z,100761.97
2022-09-07T18:24:23.972Z,100756.16
2022-09-07T18:26:53.803Z,100767.53
2022-09-07T18:29:33.915Z,100757.28
2022-09-07T18:32:08.243Z,100754.22
2022-09-07T18:34:37.696Z,100762.22
2022-09-07T18:37:05.160Z,100757.06
2022-09-07T18:39:33.485Z,100757.59
2022-09-07T18:42:00.442Z,100750.25
2022-09-07T18:47:23.188Z,100751.44
2022-09-07T18:49:51.419Z,100750.47
2022-09-07T18:55:08.583Z,100745.59
2022-09-07T18:57:36.477Z,100752.66
2022-09-07T19:00:06.863Z,100758.03
2022-09-07T19:02:33.906Z,100756.00
2022-09-07T19:07:47.648Z,100756.22
2022-09-07T19:10:16.637Z,100759.34
2022-09-07T19:12:45.838Z,100757.13
2022-09-07T19:15:13.932Z,100757.28
2022-09-07T19:17:40.901Z,100759.34
2022-09-07T19:20:08.459Z,100758.69
2022-09-07T19:22:35.274Z,100761.78
2022-09-07T19:25:02.069Z,100759.41
2022-09-07T19:27:29.181Z,100763.91
2022-09-07T19:29:55.951Z,100765.31
2022-09-07T19:32:22.810Z,100772.22
2022-09-07T19:34:54.413Z,100758.03
2022-09-07T19:37:25.910Z,100762.50
2022-09-07T19:39:56.872Z,100760.28
2022-09-07T19:42:25.730Z,100762.34
2022-09-07T19:44:54.120Z,100758.56
2022-09-07T19:47:22.069Z,100749.97
2022-09-07T19:49:48.857Z,100753.94
2022-09-07T19:52:15.669Z,100751.66
2022-09-07T19:54:43.829Z,100755.97
2022-09-07T19:57:10.660Z,100747.38
2022-09-07T19:59:37.408Z,100750.28
2022-09-07T20:02:04.194Z,100753.03
2022-09-07T20:04:31.082Z,100751.66
2022-09-07T20:06:57.937Z,100748.63
2022-09-07T20:09:25.834Z,100746.38
2022-09-07T20:11:52.741Z,100742.09
2022-09-07T20:14:19.866Z,100732.69
2022-09-07T20:16:46.744Z,100736.13
2022-09-07T20:19:15.107Z,100736.81
2022-09-07T20:21:43.085Z,100730.81
2022-09-07T20:24:14.416Z,100729.78
2022-09-07T20:26:41.324Z,100725.31
2022-09-07T20:29:26.897Z,100715.03
2022-09-07T20:31:57.823Z,100714.72
2022-09-07T20:34:25.516Z,100713.31
2022-09-07T20:36:53.093Z,100712.81
2022-09-07T20:39:21.736Z,100708.53
2022-09-07T20:41:48.731Z,100706.81
2022-09-07T20:44:16.151Z,100697.91
2022-09-07T20:46:43.556Z,100690.38
2022-09-07T20:49:10.814Z,100694.13
2022-09-07T20:51:38.646Z,100685.72
2022-09-07T20:54:07.039Z,100689.31
2022-09-07T20:56:34.071Z,100694.97
2022-09-07T20:59:03.004Z,100682.31
2022-09-07T21:01:32.567Z,100686.94
2022-09-07T21:04:01.217Z,100685.91
2022-09-07T21:06:31.557Z,100674.25
2022-09-07T21:08:59.228Z,100676.31
2022-09-07T21:11:33.095Z,100677.50
2022-09-07T21:14:06.476Z,100678.88
2022-09-07T21:16:35.488Z,100684.91
2022-09-07T21:19:06.859Z,100667.28
2022-09-07T21:21:41.231Z,100673.25
2022-09-07T21:24:21.218Z,100677.03
2022-09-07T21:26:50.197Z,100672.41
2022-09-07T21:29:24.179Z,100672.03
2022-09-07T21:31:53.602Z,100673.59
2022-09-07T21:34:22.483Z,100681.50
2022-09-07T21:36:49.613Z,100677.69
2022-09-07T21:39:16.774Z,100677.69
2022-09-07T21:41:45.102Z,100681.50
2022-09-07T21:44:14.814Z,100680.63
2022-09-07T21:46:44.001Z,100674.28
2022-09-07T21:49:11.340Z,100685.25
2022-09-07T21:51:38.317Z,100688.66
2022-09-07T21:54:06.070Z,100683.53
2022-09-07T21:56:33.095Z,100680.47
2022-09-07T21:59:02.414Z,100673.59
2022-09-07T22:01:31.534Z,100671.91
2022-09-07T22:04:04.957Z,100678.06
2022-09-07T22:06:33.435Z,100675.31
2022-09-07T22:09:01.690Z,100670.69
2022-09-07T22:11:30.062Z,100670.69
2022-09-07T22:14:03.300Z,100663.13
2022-09-07T22:16:33.105Z,100663.66
2022-09-07T22:19:00.481Z,100665.03
2022-09-07T22:21:29.752Z,100653.88
2022-09-07T22:24:03.741Z,100651.63
2022-09-07T22:26:40.267Z,100647.88
2022-09-07T22:29:10.966Z,100638.78
2022-09-07T22:31:40.765Z,100642.56
2022-09-07T22:34:09.384Z,100643.41
2022-09-07T22:36:43.293Z,100648.88
2022-09-07T22:39:14.912Z,100639.97
2022-09-07T22:41:43.327Z,100643.44
2022-09-07T22:44:15.086Z,100634.88
2022-09-07T22:46:43.511Z,100633.84
2022-09-07T22:49:14.365Z,100629.09
2022-09-07T22:51:41.222Z,100633.22
2022-09-07T22:54:08.468Z,100631.81
2022-09-07T22:56:36.986Z,100630.13
2022-09-07T22:59:09.287Z,100630.13
2022-09-07T23:01:37.477Z,100644.69
2022-09-07T23:04:05.486Z,100633.22
2022-09-07T23:06:40.037Z,100631.69
2022-09-07T23:09:17.448Z,100629.94
2022-09-07T23:11:46.206Z,100631.16
2022-09-07T23:14:20.680Z,100626.69
2022-09-07T23:16:49.250Z,100627.75
2022-09-07T23:19:19.565Z,100617.81
2022-09-07T23:21:46.799Z,100622.59
2022-09-07T23:24:17.080Z,100626.72
2022-09-07T23:26:44.689Z,100635.44
2022-09-07T23:29:13.687Z,100627.75
2022-09-07T23:31:41.876Z,100628.06
2022-09-07T23:34:09.482Z,100636.44
2022-09-07T23:36:37.127Z,100641.91
2022-09-07T23:39:04.202Z,100640.75
2022-09-07T23:41:31.118Z,100627.06
2022-09-07T23:43:57.913Z,100643.28
2022-09-07T23:46:24.815Z,100636.25
2022-09-07T23:48:51.702Z,100638.31
2022-09-07T23:51:23.463Z,100640.03
2022-09-07T23:53:51.888Z,100639.66
2022-09-07T23:56:19.264Z,100638.41
2022-09-07T23:58:46.166Z,100634.69
